Time;durP1;ratioP1;P1;durP2;ratioP2;P2;SDS_P1;SDS_P2;PMS_P1;PMS_P2;Temp;Humidity;BMP_temperature;BMP_pressure;BME280_temperature;BME280_humidity;BME280_pressure;Samples;Min_cycle;Max_cycle;Signal;HPM_P1;HPM_P2
2023/05/26 00:01:00;;;;;;;11.80;9.30;;;;;;;12.39;100.00;97531.05;110148;1244;70432;-68
2023/05/26 00:03:29;;;;;;;10.40;8.70;;;;;;;12.33;100.00;97533.23;110151;1243;69220;-68
2023/05/26 00:05:58;;;;;;;;;;;;;;;12.29;100.00;97535.84;110127;1244;68511;-68
2023/05/26 00:08:27;;;;;;;7.80;7.00;;;;;;;12.23;100.00;97533.96;110148;1244;58874;-68
2023/05/26 00:10:55;;;;;;;10.90;9.50;;;;;;;12.19;100.00;97535.64;110133;1243;58918;-68
2023/05/26 00:13:24;;;;;;;10.50;9.20;;;;;;;12.16;100.00;97539.63;110150;1242;70455;-68
2023/05/26 00:15:53;;;;;;;10.20;8.80;;;;;;;12.11;100.00;97544.55;110144;1241;68395;-68
2023/05/26 00:18:26;;;;;;;10.20;8.80;;;;;;;12.08;100.00;97542.84;110128;1245;67495;-68
2023/05/26 00:20:57;;;;;;;11.80;9.20;;;;;;;12.04;100.00;97543.29;110114;1244;58892;-68
2023/05/26 00:23:26;;;;;;;10.80;9.60;;;;;;;12.00;100.00;97538.20;110120;1244;58841;-68
2023/05/26 00:25:56;;;;;;;11.00;8.50;;;;;;;11.97;100.00;97537.73;110134;1245;70529;-68
2023/05/26 00:28:24;;;;;;;8.80;7.90;;;;;;;11.98;100.00;97541.84;110141;1244;68636;-68
2023/05/26 00:30:53;;;;;;;10.60;9.50;;;;;;;11.99;100.00;97537.41;110120;1244;69264;-68
2023/05/26 00:33:23;;;;;;;9.50;8.40;;;;;;;11.98;100.00;97533.81;110135;1244;58893;-68
2023/05/26 00:35:52;;;;;;;10.70;8.70;;;;;;;11.97;100.00;97532.66;110144;1244;59396;-68
2023/05/26 00:38:23;;;;;;;13.00;10.50;;;;;;;11.97;100.00;97534.05;110172;1241;69785;-67
2023/05/26 00:40:54;;;;;;;10.90;9.70;;;;;;;11.93;100.00;97536.13;110154;1241;69386;-67
2023/05/26 00:43:24;;;;;;;10.90;9.40;;;;;;;11.88;100.00;97534.23;110148;1244;69170;-68
2023/05/26 00:45:54;;;;;;;10.40;9.10;;;;;;;11.86;100.00;97534.56;110140;1243;58938;-68
2023/05/26 00:48:23;;;;;;;;;;;;;;;11.83;100.00;97532.55;110148;1248;58929;-67
2023/05/26 00:50:52;;;;;;;8.40;7.50;;;;;;;11.78;100.00;97532.39;109790;1246;70076;-67
2023/05/26 00:53:22;;;;;;;11.90;9.00;;;;;;;11.73;100.00;97532.33;109790;1244;68499;-67
2023/05/26 00:55:54;;;;;;;11.10;9.30;;;;;;;11.69;100.00;97531.11;110109;1244;69948;-67
2023/05/26 00:58:25;;;;;;;13.70;10.20;;;;;;;11.64;100.00;97527.84;109914;1243;58954;-67
2023/05/26 01:00:55;;;;;;;10.40;8.90;;;;;;;11.59;100.00;97523.67;109864;1245;58894;-67
2023/05/26 01:03:23;;;;;;;11.50;9.30;;;;;;;11.55;100.00;97522.02;110086;1246;69467;-68
2023/05/26 01:05:54;;;;;;;10.30;8.60;;;;;;;11.51;100.00;97516.38;109827;1248;69220;-69
2023/05/26 01:08:23;;;;;;;14.30;10.60;;;;;;;11.46;100.00;97511.32;110087;1245;69735;-68
2023/05/26 01:10:55;;;;;;;12.10;10.80;;;;;;;11.44;100.00;97511.33;110171;1241;58945;-68
2023/05/26 01:13:31;;;;;;;11.60;10.20;;;;;;;11.40;100.00;97509.91;109821;1246;58916;-70
2023/05/26 01:16:09;;;;;;;11.50;9.30;;;;;;;11.38;100.00;97510.06;109800;1244;70624;-69
2023/05/26 01:18:48;;;;;;;11.20;9.80;;;;;;;11.36;100.00;97510.73;110055;1244;68432;-69
2023/05/26 01:21:18;;;;;;;11.50;10.20;;;;;;;11.34;100.00;97504.23;110126;1244;69161;-68
2023/05/26 01:24:05;;;;;;;10.10;8.70;;;;;;;11.31;100.00;97507.41;110129;1244;59292;-68
2023/05/26 01:27:09;;;;;;;10.90;8.80;;;;;;;11.28;100.00;97506.80;110172;1241;58943;-68
2023/05/26 01:29:39;;;;;;;11.70;9.80;;;;;;;11.26;100.00;97507.30;110154;1244;70557;-68
2023/05/26 01:32:13;;;;;;;13.40;10.40;;;;;;;11.22;100.00;97507.19;110133;1244;69188;-68
2023/05/26 01:34:42;;;;;;;13.20;11.50;;;;;;;11.18;100.00;97505.92;110114;1241;69311;-68
2023/05/26 01:37:13;;;;;;;15.20;13.60;;;;;;;11.17;100.00;97510.20;110137;1244;58857;-68
2023/05/26 01:39:42;;;;;;;14.00;12.50;;;;;;;11.15;100.00;97509.00;110140;1244;59301;-68
2023/05/26 01:42:18;;;;;;;14.60;11.50;;;;;;;11.12;100.00;97510.03;110099;1244;68789;-69
2023/05/26 01:45:10;;;;;;;14.60;12.80;;;;;;;11.05;100.00;97512.14;110090;1244;69359;-68
2023/05/26 01:47:49;;;;;;;13.80;11.50;;;;;;;10.99;100.00;97511.56;110147;1241;68581;-68
2023/05/26 01:50:22;;;;;;;13.20;11.50;;;;;;;10.93;100.00;97509.53;109743;1246;58924;-68
2023/05/26 01:52:56;;;;;;;12.10;9.60;;;;;;;10.88;100.00;97510.23;110096;1241;58931;-68
2023/05/26 01:55:27;;;;;;;13.30;10.30;;;;;;;10.84;100.00;97513.50;110181;1243;69949;-68
2023/05/26 01:57:58;;;;;;;14.60;11.40;;;;;;;10.81;100.00;97518.24;110117;1241;68894;-68
2023/05/26 02:00:31;;;;;;;15.10;10.90;;;;;;;10.78;100.00;97515.34;109892;1245;69609;-68
2023/05/26 02:03:02;;;;;;;15.90;12.40;;;;;;;10.76;100.00;97518.27;109826;1243;58938;-68
2023/05/26 02:05:34;;;;;;;16.30;12.90;;;;;;;10.74;100.00;97519.61;109863;1246;58838;-68
2023/05/26 02:08:03;;;;;;;19.60;15.30;;;;;;;10.76;100.00;97517.02;109900;1246;69988;-69
2023/05/26 02:10:34;;;;;;;19.40;15.60;;;;;;;10.76;100.00;97521.20;110117;1244;69307;-68
2023/05/26 02:13:06;;;;;;;19.30;15.70;;;;;;;10.75;100.00;97519.40;110183;1244;69206;-68
2023/05/26 02:15:35;;;;;;;14.30;12.10;;;;;;;10.75;100.00;97518.70;109982;1247;58895;-69
2023/05/26 02:18:05;;;;;;;13.10;11.00;;;;;;;10.74;100.00;97513.52;110164;1245;58848;-69
2023/05/26 02:20:35;;;;;;;14.90;12.50;;;;;;;10.73;100.00;97517.62;109939;1242;69901;-68
2023/05/26 02:23:07;;;;;;;12.20;10.50;;;;;;;10.70;100.00;97516.92;110135;1243;68759;-68
2023/05/26 02:25:38;;;;;;;11.50;10.20;;;;;;;10.67;100.00;97519.02;110117;1245;68563;-68
2023/05/26 02:28:07;;;;;;;12.20;10.90;;;;;;;10.63;100.00;97518.98;110133;1244;58899;-68
2023/05/26 02:30:39;;;;;;;12.50;9.60;;;;;;;10.63;100.00;97519.52;110131;1241;58906;-68
2023/05/26 02:33:10;;;;;;;12.30;9.90;;;;;;;10.62;100.00;97515.05;109837;1246;69682;-68
2023/05/26 02:35:42;;;;;;;12.20;10.50;;;;;;;10.62;100.00;97512.30;109886;1243;68378;-68
2023/05/26 02:38:11;;;;;;;11.30;9.00;;;;;;;10.62;100.00;97516.64;110046;1244;69284;-68
2023/05/26 02:40:43;;;;;;;13.60;11.00;;;;;;;10.64;100.00;97515.63;109806;1241;58919;-68
2023/05/26 02:43:13;;;;;;;;;;;;;;;10.66;100.00;97516.48;110202;1241;58908;-68
2023/05/26 02:45:43;;;;;;;11.70;10.10;;;;;;;10.69;100.00;97519.77;110129;1244;70031;-68
2023/05/26 02:48:13;;;;;;;14.10;11.50;;;;;;;10.70;100.00;97516.40;109891;1246;68569;-68
2023/05/26 02:50:43;;;;;;;12.50;10.70;;;;;;;10.74;100.00;97514.05;110136;1241;68441;-68
2023/05/26 02:53:14;;;;;;;11.70;9.70;;;;;;;10.79;100.00;97520.67;110138;1241;58869;-68
2023/05/26 02:55:45;;;;;;;12.10;9.90;;;;;;;10.83;100.00;97521.53;110162;1244;58878;-68
2023/05/26 02:58:15;;;;;;;12.10;10.50;;;;;;;10.88;100.00;97520.52;110127;1243;70016;-68
2023/05/26 03:00:44;;;;;;;12.10;10.90;;;;;;;10.93;100.00;97517.38;110143;1241;69271;-68
2023/05/26 03:03:13;;;;;;;13.00;10.30;;;;;;;10.97;100.00;97513.58;110154;1244;68243;-68
2023/05/26 03:05:42;;;;;;;12.90;10.70;;;;;;;11.02;100.00;97508.15;109792;1245;58888;-68
2023/05/26 03:08:11;;;;;;;14.30;12.80;;;;;;;11.10;100.00;97510.34;110148;1245;58881;-68
2023/05/26 03:10:40;;;;;;;12.70;11.30;;;;;;;11.17;100.00;97514.71;110037;1244;69819;-67
2023/05/26 03:13:09;;;;;;;12.10;10.20;;;;;;;11.23;100.00;97514.64;109833;1242;69183;-69
2023/05/26 03:15:39;;;;;;;10.00;9.00;;;;;;;11.30;100.00;97513.30;110064;1245;69211;-69
2023/05/26 03:18:13;;;;;;;12.60;10.70;;;;;;;11.37;100.00;97511.88;109787;1241;58949;-68
2023/05/26 03:20:43;;;;;;;12.20;10.90;;;;;;;11.43;100.00;97513.33;110097;1242;59289;-69
2023/05/26 03:23:11;;;;;;;13.60;10.90;;;;;;;11.48;100.00;97514.52;109910;1241;70517;-69
2023/05/26 03:25:41;;;;;;;13.30;11.30;;;;;;;11.53;100.00;97514.84;110201;1244;69234;-69
2023/05/26 03:28:12;;;;;;;16.00;11.90;;;;;;;11.59;100.00;97512.85;109880;1244;68604;-69
2023/05/26 03:30:41;;;;;;;11.80;10.60;;;;;;;11.64;100.00;97512.23;110138;1242;58976;-67
2023/05/26 03:33:10;;;;;;;13.80;10.60;;;;;;;11.69;100.00;97513.09;110130;1241;58879;-67
2023/05/26 03:35:39;;;;;;;14.30;12.90;;;;;;;11.75;100.00;97511.81;109838;1244;70438;-68
2023/05/26 03:38:08;;;;;;;14.60;11.90;;;;;;;11.80;100.00;97515.96;109881;1244;69776;-68
2023/05/26 03:40:39;;;;;;;13.90;12.00;;;;;;;11.86;100.00;97518.88;110072;1244;70153;-70
2023/05/26 03:43:09;;;;;;;14.60;13.00;;;;;;;11.88;100.00;97514.14;109871;1247;58898;-67
2023/05/26 03:45:46;;;;;;;12.70;11.10;;;;;;;11.92;100.00;97517.35;109932;1245;58837;-68
2023/05/26 03:48:16;;;;;;;12.80;11.50;;;;;;;11.95;100.00;97519.07;110127;1244;69657;-69
2023/05/26 03:50:47;;;;;;;13.80;11.80;;;;;;;11.99;100.00;97515.21;109837;1245;69276;-69
2023/05/26 03:53:16;;;;;;;12.70;11.40;;;;;;;12.04;100.00;97510.70;109776;1242;69399;-68
2023/05/26 03:55:44;;;;;;;13.50;11.60;;;;;;;12.10;100.00;97507.55;110167;1242;58912;-68
2023/05/26 03:58:14;;;;;;;13.20;11.50;;;;;;;12.18;100.00;97507.82;109798;1242;58910;-68
2023/05/26 04:00:43;;;;;;;11.50;10.10;;;;;;;12.26;100.00;97510.52;110123;1242;70616;-69
2023/05/26 04:03:13;;;;;;;12.40;10.60;;;;;;;12.30;100.00;97510.04;110134;1244;69214;-69
2023/05/26 04:05:41;;;;;;;11.20;10.10;;;;;;;12.35;100.00;97508.78;109874;1241;69169;-68
2023/05/26 04:08:11;;;;;;;13.30;11.80;;;;;;;12.42;100.00;97506.83;110144;1245;58908;-69
2023/05/26 04:10:39;;;;;;;12.40;10.80;;;;;;;12.49;100.00;97502.29;110193;1244;58865;-69
2023/05/26 04:13:07;;;;;;;14.10;10.90;;;;;;;12.57;100.00;97504.58;110149;1241;70881;-69
2023/05/26 04:15:35;;;;;;;11.80;10.50;;;;;;;12.64;100.00;97505.24;109833;1245;69742;-68
2023/05/26 04:18:05;;;;;;;10.20;9.20;;;;;;;12.72;100.00;97506.91;110087;1244;68514;-69
2023/05/26 04:20:34;;;;;;;11.20;10.00;;;;;;;12.79;100.00;97512.49;110105;1244;59758;-69
2023/05/26 04:23:04;;;;;;;8.80;7.90;;;;;;;12.87;100.00;97514.08;109823;1241;59727;-69
2023/05/26 04:25:32;;;;;;;11.00;9.80;;;;;;;12.92;100.00;97512.46;109857;1244;71399;-69
2023/05/26 04:28:14;;;;;;;11.60;9.60;;;;;;;12.94;100.00;97511.10;110123;1244;69664;-69
2023/05/26 04:30:53;;;;;;;11.00;9.40;;;;;;;12.98;100.00;97509.32;110097;1245;69414;-69
2023/05/26 04:33:25;;;;;;;11.00;9.10;;;;;;;13.03;100.00;97513.35;110108;1244;59680;-69
2023/05/26 04:35:57;;;;;;;9.90;8.90;;;;;;;13.07;100.00;97511.27;110141;1244;59640;-69
2023/05/26 04:38:25;;;;;;;10.10;9.00;;;;;;;13.12;100.00;97516.94;110164;1241;71988;-69
2023/05/26 04:40:57;;;;;;;11.80;10.50;;;;;;;13.19;100.00;97517.80;109983;1247;69691;-68
2023/05/26 04:43:25;;;;;;;12.00;9.40;;;;;;;13.28;100.00;97525.86;110117;1244;69267;-68
2023/05/26 04:45:55;;;;;;;11.20;10.00;;;;;;;13.38;100.00;97530.11;110088;1244;59695;-68
2023/05/26 04:48:23;;;;;;;12.00;10.70;;;;;;;13.47;100.00;97538.11;110145;1244;59672;-69
2023/05/26 04:50:53;;;;;;;12.00;10.70;;;;;;;13.54;100.00;97539.58;110121;1241;71485;-69
2023/05/26 04:53:21;;;;;;;11.00;9.20;;;;;;;13.63;100.00;97542.00;109830;1246;70234;-70
2023/05/26 04:55:49;;;;;;;11.00;9.30;;;;;;;13.73;100.00;97540.95;110134;1244;69908;-69
2023/05/26 04:58:18;;;;;;;13.10;10.50;;;;;;;13.86;100.00;97547.09;109835;1241;59735;-70
2023/05/26 05:00:47;;;;;;;10.70;9.30;;;;;;;13.98;100.00;97546.06;110130;1244;59692;-70
2023/05/26 05:03:38;;;;;;;11.60;10.20;;;;;;;14.05;100.00;97546.73;110151;1241;71913;-70
2023/05/26 05:06:14;;;;;;;9.50;8.50;;;;;;;14.04;100.00;97547.84;110100;1243;69501;-70
2023/05/26 05:08:43;;;;;;;10.10;9.10;;;;;;;14.17;100.00;97550.77;109807;1241;69205;-70
2023/05/26 05:11:12;;;;;;;11.60;10.30;;;;;;;14.29;100.00;97547.67;110100;1244;59720;-70
2023/05/26 05:13:39;;;;;;;11.60;10.20;;;;;;;14.40;100.00;97544.65;110122;1244;59643;-70
2023/05/26 05:16:07;;;;;;;11.50;10.40;;;;;;;14.61;100.00;97540.52;109848;1244;71032;-69
2023/05/26 05:18:35;;;;;;;11.50;10.40;;;;;;;14.91;100.00;97537.02;109864;1246;69793;-69
2023/05/26 05:21:04;;;;;;;9.50;8.50;;;;;;;15.26;98.67;97533.05;109776;1245;68348;-68
2023/05/26 05:23:34;;;;;;;9.50;8.20;;;;;;;15.78;98.56;97524.98;109800;1244;59707;-68
2023/05/26 05:26:03;;;;;;;9.60;8.20;;;;;;;16.30;94.08;97525.77;110121;1243;59825;-69
2023/05/26 05:28:34;;;;;;;9.20;7.60;;;;;;;16.83;91.78;97526.38;109842;1246;71383;-68
2023/05/26 05:31:08;;;;;;;9.90;8.00;;;;;;;16.99;87.82;97530.77;109792;1245;68808;-70
2023/05/26 05:33:39;;;;;;;8.30;7.30;;;;;;;17.07;85.37;97525.10;110088;1245;69862;-70
2023/05/26 05:36:08;;;;;;;8.20;7.40;;;;;;;17.21;85.58;97526.99;109878;1244;59744;-69
2023/05/26 05:38:35;;;;;;;9.00;8.00;;;;;;;17.31;85.17;97530.77;109859;1241;59657;-67
2023/05/26 05:41:03;;;;;;;9.90;8.90;;;;;;;17.50;84.98;97532.51;109742;1245;71530;-70
2023/05/26 05:43:32;;;;;;;8.90;7.10;;;;;;;17.48;84.75;97538.10;109918;1241;69195;-71
2023/05/26 05:46:01;;;;;;;10.30;8.40;;;;;;;17.59;85.20;97539.48;109956;1246;69582;-69
2023/05/26 05:48:52;;;;;;;9.10;8.20;;;;;;;17.79;85.53;97540.90;109769;1244;59844;-69
2023/05/26 05:51:27;;;;;;;8.80;7.90;;;;;;;17.98;84.81;97542.67;109885;1245;60097;-69
2023/05/26 05:53:55;;;;;;;9.30;8.00;;;;;;;18.11;81.93;97545.14;110178;1241;72000;-70
2023/05/26 05:56:24;;;;;;;12.10;8.80;;;;;;;18.12;80.86;97547.42;109786;1246;68629;-70
2023/05/26 05:58:53;;;;;;;8.60;7.80;;;;;;;18.09;81.21;97541.77;109770;1247;69538;-71
2023/05/26 06:01:21;;;;;;;9.80;8.60;;;;;;;18.19;81.63;97541.75;109732;1246;59702;-69
2023/05/26 06:03:49;;;;;;;10.00;8.30;;;;;;;18.29;78.60;97538.10;109794;1244;59756;-70
2023/05/26 06:06:17;;;;;;;9.00;8.10;;;;;;;18.36;78.70;97541.94;109793;1246;71642;-69
2023/05/26 06:08:45;;;;;;;7.70;6.90;;;;;;;18.57;79.06;97540.39;109780;1244;69823;-71
2023/05/26 06:11:13;;;;;;;7.00;6.30;;;;;;;18.91;77.31;97541.61;109987;1242;69280;-70
2023/05/26 06:13:42;;;;;;;7.20;6.50;;;;;;;19.33;75.82;97540.92;110089;1244;59739;-70
2023/05/26 06:16:10;;;;;;;8.10;6.90;;;;;;;19.43;73.41;97541.05;110103;1241;59654;-69
2023/05/26 06:18:38;;;;;;;6.90;6.20;;;;;;;19.40;73.71;97542.83;110111;1243;70969;-71
2023/05/26 06:21:06;;;;;;;11.00;6.80;;;;;;;19.39;74.69;97545.17;109820;1241;68691;-70
2023/05/26 06:23:34;;;;;;;8.60;7.00;;;;;;;19.31;74.92;97544.70;110114;1244;68511;-71
2023/05/26 06:26:02;;;;;;;9.10;7.50;;;;;;;19.34;75.58;97546.89;109773;1243;59711;-71
2023/05/26 06:28:30;;;;;;;8.30;6.90;;;;;;;19.44;74.41;97545.85;110024;1245;59644;-70
2023/05/26 06:30:58;;;;;;;8.80;7.40;;;;;;;19.70;73.96;97546.63;109757;1246;70357;-70
2023/05/26 06:33:44;;;;;;;7.40;6.10;;;;;;;20.19;73.95;97542.90;109767;1241;69226;-68
2023/05/26 06:36:13;;;;;;;7.00;6.10;;;;;;;20.75;72.65;97545.48;110101;1244;69336;-70
2023/05/26 06:38:42;;;;;;;6.80;6.20;;;;;;;21.48;71.54;97542.48;109759;1244;59747;-71
2023/05/26 06:41:10;;;;;;;6.40;5.70;;;;;;;22.19;68.11;97539.95;110038;1244;59672;-70
2023/05/26 06:43:38;;;;;;;6.50;5.90;;;;;;;22.74;60.64;97541.69;110103;1241;71997;-70
2023/05/26 06:46:06;;;;;;;5.90;5.30;;;;;;;23.12;57.04;97538.77;110103;1244;69147;-70
2023/05/26 06:48:35;;;;;;;4.90;4.40;;;;;;;23.26;55.33;97535.23;109814;1245;68195;-70
2023/05/26 06:51:16;;;;;;;5.60;5.00;;;;;;;23.33;54.29;97539.09;110105;1241;59695;-71
2023/05/26 06:53:48;;;;;;;6.40;5.60;;;;;;;23.08;53.23;97540.25;109974;1247;59813;-71
2023/05/26 06:56:16;;;;;;;6.70;5.90;;;;;;;22.73;54.39;97538.39;110183;1244;72377;-72
2023/05/26 06:58:43;;;;;;;6.10;5.30;;;;;;;22.81;56.00;97538.94;110182;1243;69249;-71
2023/05/26 07:01:11;;;;;;;6.00;5.40;;;;;;;23.06;54.34;97545.55;110081;1243;69228;-71
2023/05/26 07:03:40;;;;;;;6.20;5.50;;;;;;;23.24;54.02;97542.02;110120;1244;59660;-71
2023/05/26 07:06:08;;;;;;;7.50;6.00;;;;;;;23.46;53.71;97545.01;110152;1244;59653;-70
2023/05/26 07:08:38;;;;;;;6.90;5.40;;;;;;;23.85;55.16;97542.20;109881;1245;71976;-70
2023/05/26 07:11:25;;;;;;;6.60;5.80;;;;;;;24.37;52.89;97538.13;110133;1245;69207;-71
2023/05/26 07:13:55;;;;;;;6.10;4.90;;;;;;;24.69;51.26;97538.38;109927;1243;69734;-69
2023/05/26 07:16:23;;;;;;;6.20;5.60;;;;;;;24.47;49.15;97534.42;109817;1247;59727;-68
2023/05/26 07:18:51;;;;;;;5.60;5.10;;;;;;;24.78;50.98;97538.99;110032;1242;59689;-70
2023/05/26 07:21:21;;;;;;;6.60;5.60;;;;;;;24.52;49.71;97535.41;109857;1242;71959;-68
2023/05/26 07:23:50;;;;;;;6.10;5.50;;;;;;;24.20;49.99;97531.27;110179;1243;69914;-69
2023/05/26 07:26:18;;;;;;;5.80;5.30;;;;;;;23.75;51.11;97538.89;110102;1241;69873;-69
2023/05/26 07:28:48;;;;;;;6.30;5.60;;;;;;;23.44;52.70;97542.77;109740;1248;59743;-67
2023/05/26 07:31:17;;;;;;;6.70;6.00;;;;;;;23.35;53.33;97549.20;110136;1243;59646;-68
2023/05/26 07:33:45;;;;;;;6.70;6.10;;;;;;;23.31;53.61;97547.77;109762;1248;70646;-69
2023/05/26 07:36:13;;;;;;;6.10;5.10;;;;;;;23.29;53.92;97548.89;110095;1244;69777;-67
2023/05/26 07:38:41;;;;;;;5.60;5.00;;;;;;;23.25;53.93;97548.80;110135;1245;69025;-69
2023/05/26 07:41:09;;;;;;;6.50;5.80;;;;;;;23.22;55.14;97549.27;110154;1244;59759;-69
2023/05/26 07:43:37;;;;;;;7.20;5.80;;;;;;;23.09;55.64;97548.54;110130;1244;59673;-68
2023/05/26 07:46:05;;;;;;;6.80;6.10;;;;;;;22.96;55.27;97548.14;110078;1241;72050;-67
2023/05/26 07:48:32;;;;;;;5.90;5.40;;;;;;;23.11;56.25;97549.53;110091;1241;67793;-68
2023/05/26 07:51:00;;;;;;;6.50;5.80;;;;;;;23.14;55.33;97549.71;110106;1245;69304;-69
2023/05/26 07:53:28;;;;;;;7.30;6.00;;;;;;;23.21;54.41;97550.73;110028;1242;59686;-68
2023/05/26 07:55:56;;;;;;;5.60;5.10;;;;;;;23.29;53.55;97547.80;110152;1241;59689;-70
2023/05/26 07:58:23;;;;;;;6.80;5.40;;;;;;;23.42;53.04;97541.20;110122;1244;70898;-69
2023/05/26 08:00:51;;;;;;;5.60;5.00;;;;;;;23.30;52.60;97547.34;110176;1244;69084;-68
2023/05/26 08:03:18;;;;;;;7.40;5.90;;;;;;;23.30;52.39;97544.80;110167;1244;69946;-69
2023/05/26 08:05:47;;;;;;;7.20;6.50;;;;;;;23.23;54.36;97547.48;110176;1244;59754;-70
2023/05/26 08:08:15;;;;;;;7.20;6.10;;;;;;;23.26;54.13;97544.25;110169;1244;59695;-69
2023/05/26 08:10:43;;;;;;;6.60;5.60;;;;;;;23.12;54.12;97542.88;110117;1244;71278;-69
2023/05/26 08:13:10;;;;;;;5.90;5.40;;;;;;;23.21;53.92;97541.46;110118;1242;69871;-70
2023/05/26 08:15:39;;;;;;;6.20;5.60;;;;;;;23.40;52.28;97536.26;110076;1244;69354;-68
2023/05/26 08:18:06;;;;;;;6.60;5.40;;;;;;;23.56;52.22;97532.39;110111;1245;60070;-70
2023/05/26 08:20:34;;;;;;;6.60;5.90;;;;;;;24.18;53.13;97529.77;110095;1244;59757;-67
2023/05/26 08:23:03;;;;;;;7.00;6.10;;;;;;;24.88;50.57;97530.94;110065;1245;71403;-67
2023/05/26 08:25:30;;;;;;;7.10;5.70;;;;;;;25.29;49.28;97529.05;110105;1241;69139;-70
2023/05/26 08:27:59;;;;;;;5.30;4.80;;;;;;;25.48;47.63;97528.14;110193;1247;69305;-69
2023/05/26 08:30:26;;;;;;;5.90;5.30;;;;;;;25.77;47.25;97524.45;110114;1241;59670;-70
2023/05/26 08:32:54;;;;;;;7.10;5.80;;;;;;;25.84;46.11;97525.27;110209;1241;59721;-69
2023/05/26 08:35:22;;;;;;;5.50;5.00;;;;;;;26.07;46.55;97522.35;110076;1241;71257;-70
2023/05/26 08:37:49;;;;;;;5.30;4.80;;;;;;;26.00;44.96;97519.40;110110;1245;69956;-68
2023/05/26 08:40:17;;;;;;;5.50;5.00;;;;;;;26.43;45.83;97517.30;110080;1244;69081;-69
2023/05/26 08:42:49;;;;;;;5.30;4.80;;;;;;;26.53;44.56;97517.34;110149;1244;59682;-69
2023/05/26 08:45:17;;;;;;;6.10;4.90;;;;;;;26.38;42.03;97518.25;110099;1245;59599;-69
2023/05/26 08:47:47;;;;;;;5.50;4.90;;;;;;;26.22;41.70;97517.23;110111;1244;70640;-70
2023/05/26 08:50:18;;;;;;;5.60;5.00;;;;;;;26.04;42.37;97519.48;110095;1244;69144;-67
2023/05/26 08:52:47;;;;;;;5.60;4.90;;;;;;;26.42;43.42;97517.23;110228;1245;70069;-68
2023/05/26 08:55:32;;;;;;;5.00;4.40;;;;;;;27.13;43.54;97518.39;110062;1244;59696;-70
2023/05/26 08:58:00;;;;;;;6.50;4.60;;;;;;;27.83;43.27;97514.96;110230;1244;59689;-69
2023/05/26 09:00:32;;;;;;;6.10;5.00;;;;;;;28.41;40.17;97513.02;110099;1244;72394;-69
2023/05/26 09:03:02;;;;;;;5.10;4.50;;;;;;;28.56;38.85;97508.41;110199;1244;68936;-68
2023/05/26 09:05:32;;;;;;;5.00;4.20;;;;;;;28.71;38.57;97505.67;110117;1245;68521;-70
2023/05/26 09:08:01;;;;;;;5.40;4.90;;;;;;;28.26;38.53;97501.84;110118;1244;59684;-68
2023/05/26 09:10:32;;;;;;;6.10;5.00;;;;;;;28.11;39.18;97501.80;110202;1244;59675;-69
2023/05/26 09:13:03;;;;;;;8.20;5.50;;;;;;;28.34;39.70;97499.36;110147;1243;71845;-70
2023/05/26 09:15:32;;;;;;;5.60;5.10;;;;;;;28.28;38.37;97491.67;110171;1243;68366;-70
2023/05/26 09:18:11;;;;;;;4.70;4.10;;;;;;;28.71;37.71;97490.02;110135;1244;69178;-69
2023/05/26 09:20:44;;;;;;;5.30;4.50;;;;;;;29.33;37.53;97488.09;110169;1244;59714;-69
2023/05/26 09:23:15;;;;;;;4.40;3.90;;;;;;;29.88;35.68;97482.27;110134;1241;59749;-69
2023/05/26 09:25:45;;;;;;;5.00;4.10;;;;;;;30.01;34.43;97483.98;110152;1243;71429;-70
2023/05/26 09:28:14;;;;;;;3.90;3.50;;;;;;;30.81;34.25;97482.06;110105;1244;69803;-69
2023/05/26 09:30:45;;;;;;;5.40;4.10;;;;;;;31.09;31.31;97480.84;110110;1244;68547;-70
2023/05/26 09:33:18;;;;;;;5.50;3.70;;;;;;;30.86;29.74;97477.80;109840;1246;59732;-71
2023/05/26 09:35:48;;;;;;;5.80;4.60;;;;;;;30.93;30.48;97475.17;110094;1244;59636;-69
2023/05/26 09:38:17;;;;;;;5.20;4.30;;;;;;;30.94;30.77;97470.65;110159;1244;71356;-68
2023/05/26 09:40:47;;;;;;;4.10;3.70;;;;;;;30.41;30.13;97465.08;110118;1245;69797;-68
2023/05/26 09:43:19;;;;;;;4.60;3.70;;;;;;;29.92;31.06;97455.80;110089;1243;68723;-68
2023/05/26 09:45:47;;;;;;;3.90;3.40;;;;;;;30.24;31.16;97452.40;110103;1245;59664;-69
2023/05/26 09:48:15;;;;;;;4.80;3.60;;;;;;;30.26;32.09;97448.75;110115;1244;59686;-70
2023/05/26 09:50:43;;;;;;;4.10;3.70;;;;;;;30.01;30.80;97444.85;109798;1245;72065;-69
2023/05/26 09:53:11;;;;;;;4.90;3.90;;;;;;;29.52;32.34;97440.52;110122;1244;68152;-69
2023/05/26 09:55:40;;;;;;;5.30;4.00;;;;;;;30.21;31.78;97440.21;110114;1243;69803;-69
2023/05/26 09:58:12;;;;;;;6.30;4.00;;;;;;;30.22;30.24;97436.67;110106;1242;59709;-70
2023/05/26 10:00:41;;;;;;;3.70;3.30;;;;;;;30.45;30.62;97435.48;110116;1245;59653;-69
2023/05/26 10:03:10;;;;;;;3.40;3.10;;;;;;;31.01;30.31;97439.02;110115;1241;70642;-68
2023/05/26 10:05:47;;;;;;;3.90;3.50;;;;;;;31.52;30.08;97429.73;110119;1244;68648;-69
2023/05/26 10:08:18;;;;;;;4.10;3.70;;;;;;;31.83;30.33;97424.99;110112;1241;67506;-70
2023/05/26 10:10:49;;;;;;;3.90;3.50;;;;;;;31.92;28.48;97423.62;110150;1241;59768;-70
2023/05/26 10:13:17;;;;;;;4.00;3.60;;;;;;;31.93;28.68;97422.13;110180;1244;59695;-69
2023/05/26 10:15:47;;;;;;;3.80;3.40;;;;;;;31.55;27.92;97423.02;110305;1245;71033;-69
2023/05/26 10:18:14;;;;;;;4.40;3.50;;;;;;;31.76;27.57;97417.86;110152;1244;69322;-70
2023/05/26 10:20:47;;;;;;;4.10;3.40;;;;;;;31.53;28.88;97418.52;110153;1244;69779;-70
2023/05/26 10:23:21;;;;;;;4.60;3.90;;;;;;;29.79;27.71;97409.56;110074;1245;59720;-69
2023/05/26 10:26:23;;;;;;;4.10;3.50;;;;;;;29.75;28.53;97402.39;110086;1243;60065;-69
2023/05/26 10:29:03;;;;;;;4.00;3.50;;;;;;;30.05;29.67;97406.67;110100;1242;71421;-68
2023/05/26 10:31:33;;;;;;;3.60;2.90;;;;;;;30.16;28.66;97398.47;110104;1245;69606;-69
2023/05/26 10:34:12;;;;;;;4.80;3.80;;;;;;;30.50;29.18;97394.63;110094;1244;69895;-69
2023/05/26 10:36:41;;;;;;;5.20;4.00;;;;;;;29.86;29.22;97389.00;110054;1245;59704;-69
2023/05/26 10:39:12;;;;;;;4.00;3.50;;;;;;;29.72;29.66;97385.41;110104;1245;59696;-69
2023/05/26 10:41:49;;;;;;;3.70;3.40;;;;;;;29.96;30.01;97385.91;110072;1244;71366;-70
2023/05/26 10:44:40;;;;;;;3.80;3.50;;;;;;;30.35;29.67;97383.27;109850;1244;404071;-70
2023/05/26 10:47:13;;;;;;;5.40;3.80;;;;;;;30.41;29.68;97383.98;110040;1244;69384;-71
2023/05/26 10:49:42;;;;;;;5.40;4.10;;;;;;;30.30;30.33;97382.45;110147;1246;59741;-71
2023/05/26 10:52:12;;;;;;;5.10;4.30;;;;;;;30.37;30.52;97387.36;110111;1241;59744;-70
2023/05/26 10:54:42;;;;;;;4.60;4.10;;;;;;;30.12;29.92;97386.27;110209;1242;71480;-70
2023/05/26 10:57:32;;;;;;;4.30;3.90;;;;;;;29.80;28.82;97377.15;110099;1244;69761;-70
2023/05/26 11:00:34;;;;;;;4.30;3.90;;;;;;;29.80;29.08;97374.98;110084;1244;68417;-69
2023/05/26 11:03:35;;;;;;;6.20;4.00;;;;;;;30.10;29.84;97372.04;109580;1243;59669;-69
2023/05/26 11:06:05;;;;;;;4.40;4.00;;;;;;;30.08;29.58;97369.95;109786;1244;59671;-69
2023/05/26 11:08:37;;;;;;;4.60;4.10;;;;;;;30.39;29.60;97366.63;110079;1245;72034;-71
2023/05/26 11:11:08;;;;;;;4.80;3.70;;;;;;;30.88;29.24;97351.71;110090;1245;69225;-69
2023/05/26 11:13:47;;;;;;;4.20;3.80;;;;;;;30.97;27.47;97346.09;110079;1241;69276;-69
2023/05/26 11:16:17;;;;;;;6.60;4.60;;;;;;;30.90;28.88;97341.44;110083;1245;59692;-71
2023/05/26 11:18:56;;;;;;;3.90;3.50;;;;;;;31.18;29.39;97341.34;110118;1243;59715;-69
2023/05/26 11:21:31;;;;;;;4.10;3.70;;;;;;;31.00;28.26;97336.91;110178;1244;70836;-67
2023/05/26 11:24:00;;;;;;;4.20;3.80;;;;;;;31.27;28.79;97336.15;110187;1244;69127;-71
2023/05/26 11:26:30;;;;;;;;;;;;;;;31.46;28.06;97335.75;109797;1242;69937;-70
2023/05/26 11:29:01;;;;;;;6.00;4.20;;;;;;;31.70;27.93;97330.98;110087;1245;59733;-70
2023/05/26 11:31:29;;;;;;;5.40;4.30;;;;;;;31.53;27.00;97324.83;110177;1245;59743;-68
2023/05/26 11:33:57;;;;;;;4.90;3.60;;;;;;;31.40;27.19;97323.92;110157;1244;72011;-71